createdAt,value
2023-03-03T00:03:05.453Z,29.72
2023-03-03T00:05:36.189Z,29.69
2023-03-03T00:08:07.459Z,29.75
2023-03-03T00:10:37.197Z,29.65
2023-03-03T00:13:08.887Z,29.66
2023-03-03T00:15:39.276Z,29.68
2023-03-03T00:18:33.347Z,29.69
2023-03-03T00:21:34.921Z,29.69
2023-03-03T00:24:18.134Z,29.70
2023-03-03T00:27:12.438Z,29.70
2023-03-03T00:30:03.145Z,29.67
2023-03-03T00:32:54.043Z,29.70
2023-03-03T00:35:37.771Z,29.65
2023-03-03T00:38:26.485Z,29.70
2023-03-03T00:40:56.474Z,29.69
2023-03-03T00:43:31.267Z,29.67
2023-03-03T00:46:01.423Z,29.70
2023-03-03T00:48:34.223Z,29.69
2023-03-03T00:51:17.903Z,29.74
2023-03-03T00:53:47.925Z,29.74
2023-03-03T00:56:19.021Z,29.73
2023-03-03T00:58:50.329Z,29.70
2023-03-03T01:04:08.362Z,29.70
2023-03-03T01:06:38.275Z,29.71
2023-03-03T01:09:08.283Z,29.78
2023-03-03T01:11:39.502Z,29.75
2023-03-03T01:14:09.894Z,29.75
2023-03-03T01:16:58.183Z,29.76
2023-03-03T01:19:28.302Z,29.77
2023-03-03T01:22:00.918Z,29.75
2023-03-03T01:24:31.578Z,29.76
2023-03-03T01:27:01.601Z,29.75
2023-03-03T01:29:31.775Z,29.77
2023-03-03T01:32:02.140Z,29.73
2023-03-03T01:34:32.596Z,29.75
2023-03-03T01:37:03.207Z,29.78
2023-03-03T01:39:33.350Z,29.78
2023-03-03T01:42:06.906Z,29.81
2023-03-03T01:44:37.034Z,29.78
2023-03-03T01:50:06.691Z,29.82
2023-03-03T01:52:41.512Z,29.85
2023-03-03T01:55:38.246Z,29.84
2023-03-03T01:58:14.767Z,29.83
2023-03-03T02:01:14.094Z,29.85
2023-03-03T02:04:03.915Z,29.86
2023-03-03T02:06:39.473Z,29.85
2023-03-03T02:12:10.658Z,29.85
2023-03-03T02:14:40.818Z,29.86
2023-03-03T02:20:17.254Z,29.90
2023-03-03T02:23:20.653Z,29.91
2023-03-03T02:26:02.540Z,29.94
2023-03-03T02:28:36.006Z,29.93
2023-03-03T02:31:15.218Z,29.93
2023-03-03T02:33:49.201Z,29.95
2023-03-03T02:36:25.878Z,29.92
2023-03-03T02:39:14.846Z,29.95
2023-03-03T02:42:18.660Z,29.95
2023-03-03T02:44:53.763Z,29.95
2023-03-03T02:50:28.058Z,29.97
2023-03-03T02:52:58.240Z,29.99
2023-03-03T02:55:28.345Z,29.98
2023-03-03T02:57:58.438Z,29.98
2023-03-03T03:00:28.856Z,29.99
2023-03-03T03:02:59.058Z,30.01
2023-03-03T03:05:29.253Z,30.02
2023-03-03T03:08:04.410Z,30.02
2023-03-03T03:10:53.289Z,30.05
2023-03-03T03:16:10.838Z,30.03
2023-03-03T03:18:59.249Z,30.07
2023-03-03T03:21:30.334Z,30.06
2023-03-03T03:24:02.088Z,30.08
2023-03-03T03:26:33.197Z,30.09
2023-03-03T03:29:03.655Z,30.08
2023-03-03T03:31:34.671Z,30.12
2023-03-03T03:34:06.448Z,30.13
2023-03-03T03:36:54.484Z,30.12
2023-03-03T03:39:26.371Z,30.15
2023-03-03T03:41:57.076Z,30.15
2023-03-03T03:44:45.390Z,30.16
2023-03-03T03:50:02.891Z,30.19
2023-03-03T03:52:32.876Z,30.19
2023-03-03T03:55:02.918Z,30.21
2023-03-03T03:57:33.059Z,30.23
2023-03-03T04:00:03.316Z,30.21
2023-03-03T04:02:43.634Z,30.25
2023-03-03T04:05:17.156Z,30.25
2023-03-03T04:07:48.028Z,30.26
2023-03-03T04:10:20.420Z,30.27
2023-03-03T04:12:52.901Z,30.31
2023-03-03T04:15:41.131Z,30.29
2023-03-03T04:20:57.268Z,30.30
2023-03-03T04:23:28.902Z,30.33
2023-03-03T04:25:59.659Z,30.33
2023-03-03T04:28:30.041Z,30.35
2023-03-03T04:31:01.589Z,30.36
2023-03-03T04:33:34.008Z,30.37
2023-03-03T04:36:23.580Z,30.40
2023-03-03T04:44:45.719Z,30.44
2023-03-03T04:47:17.053Z,30.45
2023-03-03T04:49:47.264Z,30.48
2023-03-03T04:52:17.567Z,30.48
2023-03-03T04:54:48.873Z,30.50
2023-03-03T04:57:19.638Z,30.49
2023-03-03T04:59:49.921Z,30.52
2023-03-03T05:02:21.564Z,30.51
2023-03-03T05:04:51.935Z,30.52
2023-03-03T05:07:23.041Z,30.53
2023-03-03T05:12:57.237Z,30.54
2023-03-03T05:15:27.165Z,30.57
2023-03-03T05:17:58.607Z,30.57
2023-03-03T05:20:28.802Z,30.59
2023-03-03T05:23:01.842Z,30.61
2023-03-03T05:25:51.263Z,30.59
2023-03-03T05:31:07.381Z,30.62
2023-03-03T05:33:57.196Z,30.62
2023-03-03T05:36:28.295Z,30.62
2023-03-03T05:38:58.782Z,30.63
2023-03-03T05:41:30.527Z,30.62
2023-03-03T05:44:20.607Z,30.63
2023-03-03T05:46:50.812Z,30.65
2023-03-03T05:49:21.687Z,30.67
2023-03-03T05:54:55.196Z,30.71
2023-03-03T05:57:25.745Z,30.72
2023-03-03T05:59:55.884Z,30.73
2023-03-03T06:02:26.313Z,30.75
2023-03-03T06:04:56.592Z,30.76
2023-03-03T06:07:26.533Z,30.76
2023-03-03T06:09:56.777Z,30.77
2023-03-03T06:12:27.641Z,30.80
2023-03-03T06:14:57.901Z,30.81
2023-03-03T06:17:28.006Z,30.81
2023-03-03T06:20:16.470Z,30.82
2023-03-03T06:22:46.549Z,30.82
2023-03-03T06:25:16.508Z,30.83
2023-03-03T06:27:46.973Z,30.83
2023-03-03T06:30:35.485Z,30.84
2023-03-03T06:33:05.691Z,30.84
2023-03-03T06:35:35.844Z,30.84
2023-03-03T06:38:07.158Z,30.84
2023-03-03T06:40:37.523Z,30.86
2023-03-03T06:43:07.474Z,30.85
2023-03-03T06:45:37.663Z,30.88
2023-03-03T06:48:08.457Z,30.88
2023-03-03T06:50:38.464Z,30.88
2023-03-03T06:56:04.115Z,30.90
2023-03-03T06:58:34.281Z,30.89
2023-03-03T07:01:04.759Z,30.88
2023-03-03T07:03:38.277Z,30.88
2023-03-03T07:06:28.900Z,30.89
2023-03-03T07:09:26.269Z,30.88
2023-03-03T07:15:17.871Z,30.87
2023-03-03T07:18:25.748Z,30.85
2023-03-03T07:20:55.892Z,30.88
2023-03-03T07:23:44.552Z,30.85
2023-03-03T07:26:37.287Z,30.89
2023-03-03T07:29:32.736Z,30.89
2023-03-03T07:32:04.663Z,30.87
2023-03-03T07:34:56.756Z,30.90
2023-03-03T07:37:45.435Z,30.90
2023-03-03T07:40:41.528Z,30.93
2023-03-03T07:43:38.247Z,30.91
2023-03-03T07:46:27.595Z,30.93
2023-03-03T07:48:59.999Z,30.91
2023-03-03T07:51:38.902Z,30.91
2023-03-03T07:54:33.254Z,30.89
2023-03-03T07:57:21.377Z,30.91
2023-03-03T08:00:21.678Z,30.90
2023-03-03T08:03:00.956Z,30.90
2023-03-03T08:05:38.128Z,30.93
2023-03-03T08:08:47.481Z,30.93
2023-03-03T08:11:35.476Z,30.92
2023-03-03T08:17:01.772Z,30.93
2023-03-03T08:19:34.171Z,30.94
2023-03-03T08:22:29.653Z,30.94
2023-03-03T08:24:59.783Z,30.95
2023-03-03T08:27:30.013Z,30.92
2023-03-03T08:30:00.349Z,30.93
2023-03-03T08:32:30.452Z,30.93
2023-03-03T08:35:00.415Z,30.93
2023-03-03T08:37:30.487Z,30.94
2023-03-03T08:40:00.397Z,30.95
2023-03-03T08:42:32.335Z,30.93
2023-03-03T08:45:20.862Z,30.93
2023-03-03T08:48:09.967Z,30.91
2023-03-03T08:50:40.816Z,30.91
2023-03-03T08:55:56.413Z,30.93
2023-03-03T08:58:35.064Z,30.95
2023-03-03T09:01:07.138Z,30.95
2023-03-03T09:03:37.170Z,30.97
2023-03-03T09:06:07.333Z,30.97
2023-03-03T09:08:37.272Z,30.97
2023-03-03T09:11:15.225Z,30.98
2023-03-03T09:13:45.747Z,30.99
2023-03-03T09:16:17.696Z,30.98
2023-03-03T09:18:49.449Z,30.99
2023-03-03T09:21:35.028Z,30.98
2023-03-03T09:24:05.203Z,30.98
2023-03-03T09:26:51.593Z,31.00
2023-03-03T09:29:30.286Z,30.98
2023-03-03T09:32:04.837Z,30.99
2023-03-03T09:34:44.751Z,30.95
2023-03-03T09:37:34.603Z,30.98
2023-03-03T09:40:29.756Z,30.97
2023-03-03T09:43:33.110Z,30.98
2023-03-03T09:46:46.923Z,30.96
2023-03-03T09:49:32.351Z,30.96
2023-03-03T09:52:23.655Z,30.98
2023-03-03T09:55:37.858Z,30.97
2023-03-03T09:58:33.054Z,31.02
2023-03-03T10:01:45.931Z,31.00
2023-03-03T10:04:45.612Z,30.99
2023-03-03T10:07:52.629Z,31.02
2023-03-03T10:10:37.207Z,31.02
2023-03-03T10:13:09.987Z,31.01
2023-03-03T10:16:12.287Z,31.02
2023-03-03T10:18:59.475Z,31.03
2023-03-03T10:21:42.228Z,31.03
2023-03-03T10:24:32.472Z,31.02
2023-03-03T10:27:28.397Z,31.01
2023-03-03T10:30:13.162Z,31.01
2023-03-03T10:33:13.412Z,30.99
2023-03-03T10:36:06.260Z,31.02
2023-03-03T10:38:58.325Z,31.01
2023-03-03T10:41:44.095Z,30.99
2023-03-03T10:44:46.406Z,31.03
2023-03-03T10:48:04.970Z,31.03
2023-03-03T10:50:53.750Z,31.02
2023-03-03T10:54:06.171Z,31.02
2023-03-03T10:56:58.806Z,31.02
2023-03-03T11:00:13.461Z,31.01
2023-03-03T11:03:10.966Z,31.02
2023-03-03T11:05:46.991Z,31.01
2023-03-03T11:08:39.035Z,31.01
2023-03-03T11:11:32.314Z,30.98
2023-03-03T11:14:41.035Z,30.99
2023-03-03T11:17:20.184Z,30.98
2023-03-03T11:20:09.034Z,30.99
2023-03-03T11:23:17.731Z,30.99
2023-03-03T11:26:35.172Z,31.01
2023-03-03T11:29:24.585Z,30.99
2023-03-03T11:32:15.664Z,31.00
2023-03-03T11:35:07.059Z,31.01
2023-03-03T11:37:48.140Z,31.01
2023-03-03T11:40:26.033Z,31.02
2023-03-03T11:43:35.610Z,31.01
2023-03-03T11:46:14.352Z,31.00
2023-03-03T11:48:53.112Z,31.02
2023-03-03T11:51:52.913Z,30.97
2023-03-03T11:54:29.185Z,30.99
2023-03-03T11:57:13.233Z,30.97
2023-03-03T11:59:51.774Z,30.99
2023-03-03T12:05:45.528Z,31.00
2023-03-03T12:08:39.063Z,30.99
2023-03-03T12:11:25.774Z,31.00
2023-03-03T12:14:38.029Z,31.01
2023-03-03T12:20:22.859Z,30.99
2023-03-03T12:23:16.837Z,30.99
2023-03-03T12:25:59.085Z,30.98
2023-03-03T12:28:40.622Z,30.98
2023-03-03T12:31:37.631Z,30.99
2023-03-03T12:34:31.895Z,30.97
2023-03-03T12:37:31.163Z,30.98
2023-03-03T12:40:06.279Z,30.97
2023-03-03T12:42:57.256Z,30.98
2023-03-03T12:45:48.352Z,30.98
2023-03-03T12:48:39.693Z,30.99
2023-03-03T12:51:30.969Z,30.99
2023-03-03T12:54:16.361Z,30.99
2023-03-03T12:57:06.743Z,30.98
2023-03-03T13:00:03.860Z,31.01
2023-03-03T13:03:09.455Z,30.98
2023-03-03T13:06:00.520Z,31.00
2023-03-03T13:08:47.917Z,31.00
2023-03-03T13:11:41.040Z,31.03
2023-03-03T13:14:13.931Z,30.99
2023-03-03T13:17:17.134Z,30.98
2023-03-03T14:05:14.759Z,30.56
2023-03-03T14:07:59.768Z,30.56
2023-03-03T14:13:52.510Z,30.75
2023-03-03T14:17:01.142Z,30.75
2023-03-03T14:19:35.225Z,30.82
2023-03-03T14:22:41.580Z,30.86
2023-03-03T14:25:17.430Z,30.83
2023-03-03T14:27:47.437Z,30.81
2023-03-03T14:30:37.111Z,30.75
2023-03-03T14:33:31.809Z,30.72
2023-03-03T14:36:06.989Z,30.76
2023-03-03T14:38:36.960Z,30.88
2023-03-03T14:41:18.638Z,30.88
2023-03-03T14:44:03.312Z,30.87
2023-03-03T14:46:39.246Z,30.93
2023-03-03T14:49:35.638Z,30.85
2023-03-03T14:52:23.589Z,30.81
2023-03-03T14:54:57.890Z,30.87
2023-03-03T14:57:49.497Z,30.80
2023-03-03T15:00:22.296Z,30.83
2023-03-03T15:02:55.509Z,30.91
2023-03-03T15:05:28.346Z,30.93
2023-03-03T15:08:18.806Z,30.91
2023-03-03T15:11:35.735Z,30.91
2023-03-03T15:14:19.226Z,30.92
2023-03-03T15:16:49.654Z,30.94
2023-03-03T15:19:40.069Z,30.92
2023-03-03T15:22:37.544Z,30.95
2023-03-03T15:25:20.647Z,30.96
2023-03-03T15:28:18.397Z,30.94
2023-03-03T15:30:54.184Z,30.95
2023-03-03T15:33:48.708Z,30.95
2023-03-03T15:36:43.119Z,30.93
2023-03-03T15:39:44.384Z,30.97
2023-03-03T15:46:02.095Z,30.98
2023-03-03T15:48:40.927Z,30.97
2023-03-03T15:51:57.359Z,30.90
2023-03-03T15:54:44.079Z,30.96
2023-03-03T15:57:40.098Z,30.94
2023-03-03T16:00:33.031Z,30.91
2023-03-03T16:03:47.908Z,30.91
2023-03-03T16:06:41.768Z,30.89
2023-03-03T16:09:58.689Z,30.85
2023-03-03T16:12:57.750Z,30.74
2023-03-03T16:15:53.556Z,30.71
2023-03-03T16:18:44.780Z,30.68
2023-03-03T16:24:35.642Z,30.63
2023-03-03T16:27:18.079Z,30.63
2023-03-03T16:30:14.108Z,30.59
2023-03-03T16:33:22.215Z,30.58
2023-03-03T16:35:57.864Z,30.56
2023-03-03T16:38:34.152Z,30.57
2023-03-03T16:41:09.622Z,30.55
2023-03-03T16:44:05.915Z,30.53
2023-03-03T16:46:52.133Z,30.53
2023-03-03T16:49:58.101Z,30.53
2023-03-03T16:52:56.437Z,30.51
2023-03-03T16:55:59.748Z,30.52
2023-03-03T16:58:59.928Z,30.53
2023-03-03T17:01:41.838Z,30.52
2023-03-03T17:04:46.004Z,30.50
2023-03-03T17:07:38.998Z,30.49
2023-03-03T17:10:30.327Z,30.49
2023-03-03T17:13:26.815Z,30.49
2023-03-03T17:16:25.346Z,30.46
2023-03-03T17:19:12.284Z,30.44
2023-03-03T17:22:06.468Z,30.43
2023-03-03T17:24:47.950Z,30.41
2023-03-03T17:27:17.664Z,30.42
2023-03-03T17:30:02.473Z,30.37
2023-03-03T17:32:50.692Z,30.42
2023-03-03T17:35:29.953Z,30.40
2023-03-03T17:38:39.414Z,30.40
2023-03-03T17:41:52.630Z,30.40
2023-03-03T17:45:10.015Z,30.42
2023-03-03T17:48:00.755Z,30.38
2023-03-03T17:50:39.341Z,30.36
2023-03-03T17:53:18.136Z,30.33
2023-03-03T17:56:16.292Z,30.32
2023-03-03T17:59:17.456Z,30.29
2023-03-03T18:02:03.401Z,30.29
2023-03-03T18:04:44.622Z,30.29
2023-03-03T18:07:20.382Z,30.29
2023-03-03T18:10:26.390Z,30.28
2023-03-03T18:13:10.299Z,30.30
2023-03-03T18:16:14.738Z,30.29
2023-03-03T18:19:11.825Z,30.29
2023-03-03T18:22:12.951Z,30.28
2023-03-03T18:25:14.234Z,30.28
2023-03-03T18:27:48.871Z,30.31
2023-03-03T18:30:26.968Z,30.30
2023-03-03T18:32:59.903Z,30.28
2023-03-03T18:35:36.038Z,30.25
2023-03-03T18:38:18.169Z,30.26
2023-03-03T18:41:06.875Z,30.22
2023-03-03T18:43:45.580Z,30.25
2023-03-03T18:46:27.817Z,30.17
2023-03-03T18:49:03.465Z,30.19
2023-03-03T18:51:42.901Z,30.19
2023-03-03T18:54:23.684Z,30.18
2023-03-03T18:57:21.309Z,30.15
2023-03-03T18:59:57.780Z,30.17
2023-03-03T19:02:40.093Z,30.16
2023-03-03T19:05:36.746Z,30.17
2023-03-03T19:08:18.333Z,30.15
2023-03-03T19:11:01.580Z,30.13
2023-03-03T19:13:40.308Z,30.12
2023-03-03T19:16:38.943Z,30.12
2023-03-03T19:19:18.502Z,30.14
2023-03-03T19:21:53.577Z,30.14
2023-03-03T19:25:10.345Z,30.11
2023-03-03T19:27:52.297Z,30.12
2023-03-03T19:31:01.500Z,30.11
2023-03-03T19:34:08.533Z,30.07
2023-03-03T19:36:59.892Z,30.10
2023-03-03T19:39:35.715Z,30.07
2023-03-03T19:42:14.738Z,30.10
2023-03-03T19:45:18.442Z,30.05
2023-03-03T19:48:07.555Z,30.06
2023-03-03T19:50:47.638Z,30.07
2023-03-03T19:53:29.132Z,30.06
2023-03-03T19:56:11.990Z,30.05
2023-03-03T19:58:47.464Z,30.05
2023-03-03T20:01:36.503Z,30.05
2023-03-03T20:04:33.330Z,30.06
2023-03-03T20:07:49.713Z,30.04
2023-03-03T20:10:44.406Z,30.06
2023-03-03T20:13:31.328Z,30.06
2023-03-03T20:16:29.178Z,30.06
2023-03-03T20:19:15.018Z,30.06
2023-03-03T20:22:14.193Z,30.03
2023-03-03T20:24:55.937Z,30.05
2023-03-03T20:27:34.354Z,30.02
2023-03-03T20:30:13.704Z,30.05
2023-03-03T20:33:07.603Z,30.03
2023-03-03T20:35:52.828Z,30.01
2023-03-03T20:38:36.289Z,30.00
2023-03-03T20:41:23.648Z,30.01
2023-03-03T20:44:16.512Z,30.01
2023-03-03T20:46:58.295Z,30.02
2023-03-03T20:49:45.451Z,30.01
2023-03-03T20:52:34.354Z,29.99
2023-03-03T20:55:12.932Z,29.97
2023-03-03T20:58:20.098Z,29.97
2023-03-03T21:01:23.618Z,29.95
2023-03-03T21:03:55.695Z,29.96
2023-03-03T21:06:44.816Z,29.96
2023-03-03T21:09:37.716Z,29.94
2023-03-03T21:12:28.251Z,29.96
2023-03-03T21:15:23.543Z,29.96
2023-03-03T21:17:53.688Z,29.96
2023-03-03T21:20:29.539Z,29.95
2023-03-03T21:23:01.676Z,29.92
2023-03-03T21:25:43.783Z,29.93
2023-03-03T21:28:29.330Z,29.92
2023-03-03T21:31:18.982Z,29.92
2023-03-03T21:33:57.720Z,29.92
2023-03-03T21:36:40.193Z,29.95
2023-03-03T21:39:26.663Z,29.93
2023-03-03T21:42:04.402Z,29.93
2023-03-03T21:44:42.438Z,29.95
2023-03-03T21:47:14.178Z,29.93
2023-03-03T21:49:45.988Z,29.92
2023-03-03T21:52:18.503Z,29.90
2023-03-03T21:54:50.825Z,29.89
2023-03-03T21:57:21.716Z,29.88
2023-03-03T21:59:51.797Z,29.85
2023-03-03T22:02:22.076Z,29.85
2023-03-03T22:05:10.746Z,29.86
2023-03-03T22:07:41.397Z,29.85
2023-03-03T22:10:12.088Z,29.86
2023-03-03T22:12:42.246Z,29.86
2023-03-03T22:15:12.496Z,29.87
2023-03-03T22:17:42.926Z,29.85
2023-03-03T22:23:04.377Z,29.83
2023-03-03T22:25:34.253Z,29.82
2023-03-03T22:28:25.130Z,29.81
2023-03-03T22:33:55.589Z,29.80
2023-03-03T22:39:10.590Z,29.75
2023-03-03T22:41:46.499Z,29.76
2023-03-03T22:44:17.130Z,29.74
2023-03-03T22:46:46.923Z,29.80
2023-03-03T22:49:16.975Z,29.78
2023-03-03T22:51:50.301Z,29.81
2023-03-03T22:54:20.458Z,29.78
2023-03-03T22:56:51.401Z,29.77
2023-03-03T22:59:21.868Z,29.74
2023-03-03T23:01:52.236Z,29.71
2023-03-03T23:07:04.165Z,29.69
2023-03-03T23:09:34.559Z,29.72
2023-03-03T23:12:04.886Z,29.67
2023-03-03T23:14:43.654Z,29.74
2023-03-03T23:17:22.801Z,29.70
2023-03-03T23:19:53.132Z,29.65
2023-03-03T23:22:23.120Z,29.67
2023-03-03T23:24:53.299Z,29.65
2023-03-03T23:27:23.124Z,29.71
2023-03-03T23:30:14.469Z,29.65
2023-03-03T23:32:44.826Z,29.67
2023-03-03T23:35:15.475Z,29.62
2023-03-03T23:38:03.775Z,29.61
2023-03-03T23:40:34.867Z,29.68
2023-03-03T23:43:05.996Z,29.62
2023-03-03T23:45:36.602Z,29.63
2023-03-03T23:48:07.130Z,29.68
2023-03-03T23:50:39.435Z,29.49
2023-03-03T23:53:11.308Z,29.33
2023-03-03T23:55:41.395Z,29.24
2023-03-03T23:58:11.840Z,29.20
